Time;durP1;ratioP1;P1;durP2;ratioP2;P2;SDS_P1;SDS_P2;PMS_P1;PMS_P2;Temp;Humidity;BMP_temperature;BMP_pressure;BME280_temperature;BME280_humidity;BME280_pressure;Samples;Min_cycle;Max_cycle;Signal;HPM_P1;HPM_P2
2022/01/24 00:01:29;;;;;;;5.73;5.00;;;3.00;94.70;;;;;;5089617;28;20187;-86
2022/01/24 00:03:57;;;;;;;7.77;5.03;;;2.90;95.60;;;;;;5099241;28;20201;-85
2022/01/24 00:06:26;;;;;;;6.40;5.57;;;3.00;95.80;;;;;;5066071;28;20555;-85
2022/01/24 00:08:52;;;;;;;6.40;5.70;;;3.00;95.60;;;;;;5094552;28;20604;-85
2022/01/24 00:11:22;;;;;;;6.07;5.43;;;3.00;96.00;;;;;;5105674;28;20187;-87
2022/01/24 00:26:55;;;;;;;5.90;5.17;;;3.00;95.00;;;;;;5108775;28;20313;-86
2022/01/24 00:29:23;;;;;;;7.00;5.53;;;2.90;96.30;;;;;;5102705;28;20396;-86
2022/01/24 00:31:50;;;;;;;7.50;5.87;;;2.90;96.40;;;;;;5089478;28;20240;-86
2022/01/24 00:34:17;;;;;;;6.70;5.97;;;2.90;96.20;;;;;;5099107;28;20229;-87
2022/01/24 00:36:46;;;;;;;6.63;5.83;;;2.80;97.80;;;;;;5097433;28;20218;-86
2022/01/24 00:39:12;;;;;;;6.87;6.00;;;2.90;98.10;;;;;;5080231;28;20219;-85
2022/01/24 00:44:48;;;;;;;7.43;5.83;;;3.00;97.90;;;;;;5101580;28;20263;-86
2022/01/24 00:47:21;;;;;;;6.37;5.77;;;3.10;96.80;;;;;;5077924;28;20784;-85
2022/01/24 00:54:57;;;;;;;6.10;5.30;;;2.80;96.70;;;;;;5109171;28;20209;-86
2022/01/24 00:57:22;;;;;;;6.47;5.57;;;2.80;97.90;;;;;;5106399;28;20194;-87
2022/01/24 00:59:49;;;;;;;5.07;4.57;;;2.80;97.90;;;;;;5106910;28;20210;-86
2022/01/24 01:02:16;;;;;;;6.50;5.30;;;2.90;99.20;;;;;;5101001;28;20258;-87
2022/01/24 01:05:02;;;;;;;6.17;5.23;;;2.90;99.30;;;;;;5095220;28;20182;-86
2022/01/24 01:07:51;;;;;;;6.30;5.57;;;3.00;98.70;;;;;;5092926;28;20254;-87
2022/01/24 01:18:08;;;;;;;6.50;5.00;;;2.90;97.00;;;;;;5082080;28;20190;-86
2022/01/24 01:18:44;;;;;;;6.70;5.63;;;2.90;97.00;;;;;;5088746;28;20205;-86
2022/01/24 01:21:11;;;;;;;6.33;5.27;;;2.80;96.30;;;;;;5099719;28;20219;-86
2022/01/24 01:23:41;;;;;;;5.90;5.30;;;2.80;96.90;;;;;;5111969;28;20186;-88
2022/01/24 01:26:16;;;;;;;5.83;5.10;;;2.70;97.30;;;;;;5066725;28;20191;-87
2022/01/24 01:28:44;;;;;;;6.60;5.77;;;2.70;97.50;;;;;;5105906;28;20306;-88
2022/01/24 01:31:19;;;;;;;5.90;5.27;;;2.70;97.40;;;;;;5095297;28;20699;-86
2022/01/24 01:53:15;;;;;;;7.17;6.00;;;2.40;99.90;;;;;;5102516;28;20198;-86
2022/01/24 01:55:41;;;;;;;7.93;6.27;;;2.40;99.90;;;;;;5095438;28;20795;-86
2022/01/24 01:58:15;;;;;;;6.63;5.87;;;2.40;99.90;;;;;;5090548;28;20187;-86
2022/01/24 02:00:56;;;;;;;8.43;6.00;;;2.40;99.90;;;;;;5091045;28;20353;-86
2022/01/24 02:03:23;;;;;;;7.17;6.47;;;2.40;99.90;;;;;;5097919;28;20281;-85
2022/01/24 02:05:49;;;;;;;7.10;6.07;;;2.40;99.90;;;;;;5071890;28;20510;-86
2022/01/24 02:08:16;;;;;;;9.10;6.77;;;2.30;99.90;;;;;;5093632;28;20197;-86
2022/01/24 02:10:43;;;;;;;7.77;6.50;;;2.40;99.90;;;;;;5085104;28;20207;-86
2022/01/24 02:13:10;;;;;;;8.33;6.40;;;2.30;99.90;;;;;;5089965;28;20241;-85
2022/01/24 02:18:18;;;;;;;7.70;6.50;;;2.30;99.90;;;;;;5094485;28;20689;-85
2022/01/24 02:26:03;;;;;;;10.20;7.90;;;2.20;99.90;;;;;;5087174;28;20695;-85
2022/01/24 02:28:41;;;;;;;8.43;6.73;;;2.30;99.90;;;;;;5096602;28;20187;-86
2022/01/24 02:33:35;;;;;;;9.07;6.63;;;2.20;99.90;;;;;;5100193;28;20187;-86
2022/01/24 02:36:01;;;;;;;7.27;6.30;;;2.30;99.90;;;;;;5101005;28;20222;-86
2022/01/24 02:49:10;;;;;;;6.97;6.27;;;2.10;99.90;;;;;;5103258;28;20279;-85
2022/01/24 02:54:06;;;;;;;7.50;6.33;;;2.10;99.90;;;;;;5098366;28;20234;-84
2022/01/24 02:56:32;;;;;;;7.67;6.83;;;2.10;99.90;;;;;;5107507;28;20207;-84
2022/01/24 02:58:58;;;;;;;7.13;6.03;;;2.10;99.90;;;;;;5109144;28;20182;-84
2022/01/24 03:01:24;;;;;;;8.03;6.13;;;2.10;99.90;;;;;;5092480;28;20187;-85
2022/01/24 03:03:49;;;;;;;7.80;5.90;;;2.10;99.90;;;;;;5072375;28;20199;-85
2022/01/24 03:06:15;;;;;;;8.47;6.80;;;2.10;99.90;;;;;;5107092;28;20183;-84
2022/01/24 03:08:42;;;;;;;6.47;5.63;;;2.10;99.90;;;;;;5108169;28;20191;-85
2022/01/24 03:11:08;;;;;;;6.80;6.00;;;2.10;99.90;;;;;;5104135;28;20207;-84
2022/01/24 03:13:34;;;;;;;7.33;6.30;;;2.10;99.90;;;;;;5088131;28;20195;-85
2022/01/24 03:16:03;;;;;;;6.93;6.10;;;2.10;99.90;;;;;;5106057;28;20211;-85
2022/01/24 03:18:29;;;;;;;8.23;6.37;;;2.00;99.90;;;;;;5103746;28;20235;-85
2022/01/24 03:20:55;;;;;;;7.27;6.23;;;2.00;99.90;;;;;;5085995;28;20681;-85
2022/01/24 03:23:22;;;;;;;8.60;6.00;;;1.90;99.90;;;;;;5095327;28;20552;-85
2022/01/24 03:25:48;;;;;;;8.97;6.87;;;1.80;99.90;;;;;;5092456;28;20233;-85
2022/01/24 03:28:14;;;;;;;7.10;6.40;;;1.80;99.90;;;;;;5075294;28;20197;-85
2022/01/24 03:30:41;;;;;;;6.53;5.77;;;1.80;99.90;;;;;;5109723;28;20211;-85
2022/01/24 03:33:08;;;;;;;7.47;5.97;;;1.70;99.90;;;;;;5101593;28;20183;-85
2022/01/24 03:35:35;;;;;;;6.97;6.20;;;1.70;99.90;;;;;;5105806;28;20602;-86
2022/01/24 03:38:02;;;;;;;7.20;5.83;;;1.60;99.90;;;;;;5104072;28;20544;-85
2022/01/24 03:40:29;;;;;;;7.47;5.93;;;1.60;99.90;;;;;;5104846;28;20223;-85
2022/01/24 03:42:54;;;;;;;7.57;6.77;;;1.60;99.90;;;;;;5101277;28;20195;-85
2022/01/24 03:45:36;;;;;;;8.13;6.30;;;1.60;99.90;;;;;;5110379;28;20713;-85
2022/01/24 03:48:08;;;;;;;7.23;6.37;;;1.60;99.90;;;;;;5108418;28;20311;-85
2022/01/24 03:50:35;;;;;;;8.57;6.20;;;1.50;99.90;;;;;;5088752;28;20211;-84
2022/01/24 03:53:01;;;;;;;7.20;6.33;;;1.50;99.90;;;;;;5088390;28;20191;-86
2022/01/24 03:55:27;;;;;;;7.23;6.23;;;1.50;99.90;;;;;;5094620;28;20263;-85
2022/01/24 03:57:53;;;;;;;7.70;6.60;;;1.40;99.90;;;;;;5112912;28;20183;-86
2022/01/24 04:00:19;;;;;;;7.47;6.50;;;1.40;99.90;;;;;;5087222;28;20229;-86
2022/01/24 04:02:45;;;;;;;6.43;5.80;;;1.40;99.90;;;;;;5101760;28;20212;-86
2022/01/24 04:05:11;;;;;;;7.73;6.93;;;1.40;99.90;;;;;;5102739;28;20187;-85
2022/01/24 04:07:37;;;;;;;7.83;6.67;;;1.50;99.90;;;;;;5091383;28;20275;-85
2022/01/24 04:10:06;;;;;;;8.13;6.90;;;1.50;99.90;;;;;;5091778;28;20219;-85
2022/01/24 04:12:35;;;;;;;7.47;6.23;;;1.50;99.90;;;;;;5086570;28;20213;-86
2022/01/24 04:15:27;;;;;;;8.33;7.47;;;1.50;99.90;;;;;;5102935;28;20218;-86
2022/01/24 04:18:13;;;;;;;6.90;6.13;;;1.60;99.90;;;;;;5081452;28;20194;-86
2022/01/24 04:23:23;;;;;;;6.97;6.07;;;1.60;99.90;;;;;;5074430;28;20206;-85
2022/01/24 04:25:48;;;;;;;6.77;5.83;;;1.50;99.90;;;;;;5104746;28;20198;-85
2022/01/24 04:28:14;;;;;;;7.40;5.93;;;1.50;99.90;;;;;;5106401;28;20337;-85
2022/01/24 04:30:40;;;;;;;8.43;6.13;;;1.50;99.90;;;;;;5105648;28;20623;-85
2022/01/24 04:33:06;;;;;;;7.43;6.43;;;1.50;99.90;;;;;;5117402;28;20280;-86
2022/01/24 04:35:31;;;;;;;7.73;6.57;;;1.50;99.90;;;;;;5087471;28;20229;-86
2022/01/24 04:37:57;;;;;;;7.33;6.60;;;1.40;99.90;;;;;;5101561;28;20184;-86
2022/01/24 04:40:25;;;;;;;7.57;5.93;;;1.40;99.90;;;;;;5109755;28;20237;-85
2022/01/24 04:43:00;;;;;;;7.53;6.73;;;1.40;99.90;;;;;;5091503;28;20200;-86
2022/01/24 04:45:39;;;;;;;7.77;6.43;;;1.40;99.90;;;;;;5085825;28;20643;-86
2022/01/24 04:51:02;;;;;;;7.00;5.97;;;1.20;99.90;;;;;;5094760;28;20210;-86
2022/01/24 04:56:04;;;;;;;6.80;6.10;;;1.20;99.90;;;;;;5091355;28;20210;-86
2022/01/24 04:58:30;;;;;;;7.17;6.47;;;1.30;99.90;;;;;;5091397;28;20202;-86
2022/01/24 05:00:56;;;;;;;7.13;6.43;;;1.30;99.90;;;;;;5108557;28;20214;-86
2022/01/24 05:03:21;;;;;;;6.13;5.40;;;1.30;99.90;;;;;;5110146;28;20199;-86
2022/01/24 05:05:48;;;;;;;9.93;6.37;;;1.40;99.90;;;;;;5118968;28;20553;-85
2022/01/24 05:08:15;;;;;;;11.57;10.37;;;1.40;99.90;;;;;;5076187;28;20641;-86
2022/01/24 05:10:55;;;;;;;9.40;8.37;;;1.50;99.90;;;;;;5108879;28;20226;-86
2022/01/24 05:23:59;;;;;;;7.20;6.50;;;1.80;99.90;;;;;;5101850;28;20180;-86
2022/01/24 05:26:25;;;;;;;7.57;6.77;;;1.80;99.90;;;;;;5105030;28;20217;-85
2022/01/24 05:28:51;;;;;;;7.13;6.20;;;1.80;99.90;;;;;;5118295;28;20178;-86
2022/01/24 05:31:16;;;;;;;8.67;7.80;;;1.80;99.90;;;;;;5099193;28;20199;-85
2022/01/24 05:33:42;;;;;;;7.13;6.43;;;1.70;99.90;;;;;;5088764;28;20200;-86
2022/01/24 05:36:08;;;;;;;8.13;7.23;;;1.70;99.90;;;;;;5115751;28;20696;-86
2022/01/24 05:38:34;;;;;;;7.77;6.43;;;1.70;99.90;;;;;;5082989;28;20734;-86
2022/01/24 05:40:59;;;;;;;8.93;8.03;;;1.60;99.90;;;;;;5085125;28;20242;-86
2022/01/24 05:43:25;;;;;;;8.50;6.50;;;1.50;99.90;;;;;;5087332;28;20194;-86
2022/01/24 05:45:51;;;;;;;8.93;5.97;;;1.60;99.90;;;;;;5091020;28;20190;-86
2022/01/24 05:48:16;;;;;;;8.87;6.63;;;1.60;99.90;;;;;;5080036;28;20218;-86
2022/01/24 05:50:42;;;;;;;8.00;7.20;;;1.60;99.90;;;;;;5112622;28;20229;-86
2022/01/24 05:53:08;;;;;;;9.77;7.63;;;1.60;99.90;;;;;;5112636;28;20187;-86
2022/01/24 05:55:34;;;;;;;9.17;8.23;;;1.60;99.90;;;;;;5084150;28;20237;-86
2022/01/24 05:58:00;;;;;;;9.13;8.20;;;1.60;99.90;;;;;;5104067;28;20194;-86
2022/01/24 06:00:26;;;;;;;8.37;6.67;;;1.60;99.90;;;;;;5108181;28;20194;-85
2022/01/24 06:02:51;;;;;;;9.57;6.97;;;1.70;99.90;;;;;;5101944;28;20187;-85
2022/01/24 06:05:18;;;;;;;7.87;7.07;;;1.70;99.90;;;;;;5101683;28;20194;-86
2022/01/24 06:07:43;;;;;;;7.77;6.97;;;1.80;99.90;;;;;;5092252;28;20190;-85
2022/01/24 06:10:09;;;;;;;7.80;6.87;;;1.80;99.90;;;;;;5110578;28;20775;-85
2022/01/24 06:12:35;;;;;;;8.57;7.77;;;1.80;99.90;;;;;;5108283;28;20235;-85
2022/01/24 06:15:01;;;;;;;8.23;6.60;;;1.70;99.90;;;;;;5079627;28;20217;-84
2022/01/24 06:17:27;;;;;;;8.47;6.90;;;1.70;99.90;;;;;;5088780;28;20178;-85
2022/01/24 06:19:53;;;;;;;7.83;7.03;;;1.60;99.90;;;;;;5098824;28;20309;-85
2022/01/24 06:22:20;;;;;;;7.63;6.70;;;1.40;99.90;;;;;;5100962;28;20198;-85
2022/01/24 06:24:46;;;;;;;8.50;6.40;;;1.30;99.90;;;;;;5103387;28;20182;-85
2022/01/24 06:27:11;;;;;;;8.23;6.20;;;1.30;99.90;;;;;;5080203;28;20207;-85
2022/01/24 06:29:37;;;;;;;7.23;6.53;;;1.30;99.90;;;;;;5089540;28;20215;-86
2022/01/24 06:32:03;;;;;;;6.90;6.20;;;1.30;99.90;;;;;;5084047;28;20680;-85
2022/01/24 06:34:29;;;;;;;7.73;6.93;;;1.30;99.90;;;;;;5100501;28;20276;-85
2022/01/24 06:36:55;;;;;;;8.53;7.73;;;1.30;99.90;;;;;;5084727;28;20247;-86
2022/01/24 06:39:20;;;;;;;9.03;6.47;;;1.20;99.90;;;;;;5097784;28;20279;-85
2022/01/24 06:42:02;;;;;;;7.23;6.40;;;1.20;99.90;;;;;;5106010;28;20216;-85
2022/01/24 06:44:28;;;;;;;7.47;6.77;;;1.20;99.90;;;;;;5081283;28;20199;-85
2022/01/24 06:46:53;;;;;;;7.60;6.43;;;1.30;99.90;;;;;;5102142;28;20191;-85
2022/01/24 06:49:19;;;;;;;8.20;7.10;;;1.30;99.90;;;;;;5107768;28;20210;-86
2022/01/24 06:51:45;;;;;;;7.80;7.00;;;1.30;99.90;;;;;;5091053;28;20198;-85
2022/01/24 06:54:10;;;;;;;7.67;6.97;;;1.30;99.90;;;;;;5069521;28;20669;-85
2022/01/24 06:56:36;;;;;;;7.27;6.57;;;1.30;99.90;;;;;;5087429;28;20504;-85
2022/01/24 06:59:02;;;;;;;8.10;7.27;;;1.40;99.90;;;;;;5083078;28;20195;-85
2022/01/24 07:01:28;;;;;;;11.23;10.23;;;1.50;99.90;;;;;;5086845;28;20191;-85
2022/01/24 07:03:53;;;;;;;8.70;7.80;;;1.50;99.90;;;;;;5071217;28;20182;-85
2022/01/24 07:06:19;;;;;;;7.33;6.63;;;1.40;99.90;;;;;;5100726;28;20199;-85
2022/01/24 07:08:45;;;;;;;8.97;7.23;;;1.40;99.90;;;;;;5098472;28;20267;-85
2022/01/24 07:11:11;;;;;;;7.27;6.57;;;1.40;99.90;;;;;;5101691;28;20215;-85
2022/01/24 07:13:36;;;;;;;8.27;7.33;;;1.30;99.90;;;;;;5104811;28;20203;-85
2022/01/24 07:16:05;;;;;;;7.70;6.90;;;1.30;99.90;;;;;;5085974;28;20437;-85
2022/01/24 07:20:59;;;;;;;9.47;8.00;;;1.30;99.90;;;;;;5100063;28;20677;-85
2022/01/24 07:23:25;;;;;;;7.90;6.30;;;1.30;99.90;;;;;;5100418;28;20255;-85
2022/01/24 07:25:51;;;;;;;8.50;7.60;;;1.10;99.90;;;;;;5096137;28;20606;-85
2022/01/24 07:28:17;;;;;;;8.27;7.47;;;1.00;99.90;;;;;;5105395;28;20214;-86
2022/01/24 07:30:44;;;;;;;9.03;7.70;;;1.10;99.90;;;;;;5088827;28;20229;-85
2022/01/24 07:33:10;;;;;;;10.90;7.63;;;1.10;99.90;;;;;;5095518;28;20195;-85
2022/01/24 07:35:35;;;;;;;9.57;8.43;;;1.10;99.90;;;;;;5103233;28;20215;-86
2022/01/24 07:38:03;;;;;;;10.17;9.00;;;1.00;99.90;;;;;;5068448;28;20198;-85
2022/01/24 07:40:29;;;;;;;12.87;8.53;;;1.00;99.90;;;;;;5078645;28;20248;-85
2022/01/24 07:43:16;;;;;;;12.23;8.93;;;1.00;99.90;;;;;;5112660;28;20326;-86
2022/01/24 07:45:43;;;;;;;13.53;10.30;;;1.00;99.90;;;;;;5090946;28;20226;-86
2022/01/24 07:48:09;;;;;;;15.77;12.27;;;1.10;99.90;;;;;;5104370;28;20187;-86
2022/01/24 07:50:37;;;;;;;13.10;10.63;;;1.10;99.90;;;;;;5105074;28;20221;-86
2022/01/24 07:53:04;;;;;;;14.73;10.30;;;1.10;99.90;;;;;;5095595;28;20357;-86
2022/01/24 07:55:30;;;;;;;11.33;9.97;;;1.10;99.90;;;;;;5090119;28;20727;-86
2022/01/24 07:57:56;;;;;;;13.50;10.30;;;1.10;99.90;;;;;;5107191;28;20193;-86
2022/01/24 08:00:22;;;;;;;12.77;10.10;;;1.20;99.90;;;;;;5113368;28;20613;-86
2022/01/24 08:02:48;;;;;;;12.97;10.93;;;1.20;99.90;;;;;;5113479;28;20182;-86
2022/01/24 08:05:14;;;;;;;14.33;11.23;;;1.30;99.90;;;;;;5104188;28;20219;-86
2022/01/24 08:07:40;;;;;;;12.30;10.53;;;1.40;99.90;;;;;;5102830;28;20187;-86
2022/01/24 08:10:08;;;;;;;12.27;10.87;;;1.40;99.90;;;;;;5114766;28;20270;-86
2022/01/24 08:12:35;;;;;;;11.70;9.77;;;1.50;99.90;;;;;;5108811;28;20217;-86
2022/01/24 08:15:05;;;;;;;10.30;9.20;;;1.50;99.90;;;;;;5130160;22;20185;-86
2022/01/24 08:17:31;;;;;;;10.73;9.60;;;1.50;99.90;;;;;;5095083;28;20212;-86
2022/01/24 08:19:57;;;;;;;13.50;9.53;;;1.50;99.90;;;;;;5102696;28;20584;-85
2022/01/24 08:22:24;;;;;;;11.53;9.53;;;1.60;99.90;;;;;;5085485;28;20202;-85
2022/01/24 08:24:51;;;;;;;10.37;9.33;;;1.60;99.90;;;;;;5106415;28;20206;-86
2022/01/24 08:27:18;;;;;;;9.83;8.83;;;1.70;99.90;;;;;;5095435;28;20192;-85
2022/01/24 08:29:46;;;;;;;12.47;10.53;;;1.80;99.90;;;;;;5096662;28;20198;-86
2022/01/24 08:32:12;;;;;;;11.30;10.13;;;1.80;99.90;;;;;;5096388;28;20687;-85
2022/01/24 08:34:38;;;;;;;13.40;11.43;;;1.80;99.90;;;;;;5108274;28;20203;-86
2022/01/24 08:37:04;;;;;;;10.13;9.13;;;1.90;99.90;;;;;;5103210;28;20222;-86
2022/01/24 08:39:30;;;;;;;8.90;8.00;;;1.90;99.90;;;;;;5105619;28;20491;-86
2022/01/24 08:46:57;;;;;;;11.73;10.53;;;2.20;99.90;;;;;;5101958;28;20210;-86
2022/01/24 08:49:24;;;;;;;10.23;9.10;;;2.20;99.90;;;;;;5104445;28;20620;-86
2022/01/24 08:51:50;;;;;;;12.33;11.13;;;2.30;99.90;;;;;;5100506;28;20219;-86
2022/01/24 08:54:15;;;;;;;13.77;12.33;;;2.30;99.90;;;;;;5070539;28;20535;-86
2022/01/24 08:56:42;;;;;;;13.07;10.47;;;2.30;99.90;;;;;;5080951;28;20219;-86
2022/01/24 08:59:08;;;;;;;10.87;9.77;;;2.40;99.90;;;;;;5099434;28;20203;-86
2022/01/24 09:01:34;;;;;;;10.60;9.40;;;2.40;99.90;;;;;;5096491;28;20285;-86
2022/01/24 09:04:01;;;;;;;9.80;8.80;;;2.40;99.90;;;;;;5113532;28;20272;-86
2022/01/24 09:06:28;;;;;;;11.60;9.20;;;2.50;99.90;;;;;;5114832;28;20228;-86
2022/01/24 09:09:03;;;;;;;9.93;8.93;;;2.50;99.90;;;;;;5107791;28;20182;-85
2022/01/24 09:11:34;;;;;;;10.50;9.33;;;2.60;99.90;;;;;;5106054;28;20179;-85
2022/01/24 09:14:00;;;;;;;11.03;9.80;;;2.70;99.90;;;;;;5105941;28;20167;-86
2022/01/24 09:16:26;;;;;;;10.50;9.30;;;2.70;99.90;;;;;;5109651;28;20230;-86
2022/01/24 09:18:53;;;;;;;12.80;9.30;;;2.70;99.90;;;;;;5086098;28;20692;-86
2022/01/24 09:21:19;;;;;;;10.60;9.07;;;2.70;99.90;;;;;;5097958;28;20203;-86
2022/01/24 09:23:45;;;;;;;10.23;9.23;;;2.80;99.90;;;;;;5102345;28;20191;-86
2022/01/24 09:26:11;;;;;;;9.93;8.93;;;2.90;99.90;;;;;;5085926;28;20210;-87
2022/01/24 09:28:40;;;;;;;13.57;9.70;;;3.00;99.90;;;;;;5106687;28;20239;-87
2022/01/24 09:31:06;;;;;;;9.80;8.80;;;3.10;99.90;;;;;;5063360;28;20193;-85
2022/01/24 09:33:32;;;;;;;11.50;9.77;;;3.20;99.90;;;;;;5069169;28;20195;-86
2022/01/24 09:36:00;;;;;;;10.47;9.40;;;3.40;99.60;;;;;;5102032;28;20218;-87
2022/01/24 09:38:32;;;;;;;11.37;9.80;;;3.40;99.30;;;;;;5095562;28;20797;-86
2022/01/24 09:41:00;;;;;;;10.37;8.97;;;3.60;98.50;;;;;;5092920;28;20320;-86
2022/01/24 09:43:27;;;;;;;12.60;10.00;;;3.70;97.60;;;;;;5099736;28;20214;-86
2022/01/24 09:45:55;;;;;;;11.53;10.33;;;3.80;97.80;;;;;;5099714;28;20245;-86
2022/01/24 09:48:20;;;;;;;11.23;10.07;;;3.90;96.40;;;;;;5088512;28;20198;-87
2022/01/24 09:50:50;;;;;;;12.47;10.07;;;3.90;95.90;;;;;;5102662;28;20191;-87
2022/01/24 09:53:17;;;;;;;12.63;10.60;;;4.00;95.50;;;;;;5095931;28;20183;-87
2022/01/24 09:55:43;;;;;;;12.00;10.87;;;4.10;95.60;;;;;;5103638;28;20705;-87
2022/01/24 09:58:09;;;;;;;11.87;10.17;;;4.20;95.10;;;;;;5104590;28;20183;-87
2022/01/24 10:00:35;;;;;;;11.80;9.53;;;4.30;93.20;;;;;;5056165;28;20205;-87
2022/01/24 10:03:01;;;;;;;11.03;9.90;;;4.40;93.10;;;;;;5088156;28;20191;-87
2022/01/24 10:05:33;;;;;;;11.43;10.23;;;4.40;92.70;;;;;;5074504;28;20213;-87
2022/01/24 10:08:00;;;;;;;11.93;10.27;;;4.50;92.60;;;;;;5097003;28;20244;-87
2022/01/24 10:10:46;;;;;;;11.20;10.10;;;4.70;91.80;;;;;;5075376;28;20668;-87
2022/01/24 10:19:20;;;;;;;11.20;10.00;;;5.00;89.30;;;;;;5099637;28;20183;-87
2022/01/24 10:21:55;;;;;;;14.60;10.20;;;5.10;89.60;;;;;;5097839;28;20214;-87
2022/01/24 10:24:32;;;;;;;10.20;9.13;;;5.30;88.30;;;;;;5095337;28;20193;-87
2022/01/24 10:27:27;;;;;;;10.47;9.37;;;5.30;88.10;;;;;;5082727;28;20221;-87
2022/01/24 10:29:58;;;;;;;10.83;9.27;;;5.40;87.50;;;;;;5080993;28;20210;-87
2022/01/24 10:32:34;;;;;;;10.23;9.27;;;5.40;86.40;;;;;;5095489;28;20254;-87
2022/01/24 10:35:43;;;;;;;11.13;10.03;;;5.40;86.70;;;;;;5092715;28;20242;-87
2022/01/24 10:38:42;;;;;;;10.13;9.13;;;5.60;85.90;;;;;;5094761;28;20179;-87
2022/01/24 10:41:20;;;;;;;9.67;8.63;;;5.60;84.50;;;;;;5093149;28;20200;-88
2022/01/24 10:43:47;;;;;;;11.47;9.67;;;5.70;84.80;;;;;;5093182;28;20179;-87
2022/01/24 10:46:13;;;;;;;10.77;9.07;;;5.90;83.70;;;;;;5093155;28;20554;-86
2022/01/24 10:48:44;;;;;;;13.97;11.07;;;5.90;83.60;;;;;;5092711;28;20187;-86
2022/01/24 10:51:23;;;;;;;10.87;9.77;;;6.10;83.30;;;;;;5090101;28;20183;-86
2022/01/24 10:53:57;;;;;;;10.63;9.63;;;6.20;82.30;;;;;;5092395;28;20209;-86
2022/01/24 10:56:43;;;;;;;11.73;10.03;;;6.30;81.70;;;;;;5092952;28;20200;-86
2022/01/24 10:59:21;;;;;;;9.87;8.83;;;6.30;80.80;;;;;;5096367;28;20190;-86
2022/01/24 11:01:58;;;;;;;10.53;9.50;;;6.40;80.40;;;;;;5092280;28;20274;-86
2022/01/24 11:04:28;;;;;;;9.80;8.80;;;6.50;79.50;;;;;;5094219;28;20348;-86
2022/01/24 11:06:59;;;;;;;11.73;9.53;;;6.60;78.40;;;;;;5094748;28;20218;-87
2022/01/24 11:09:32;;;;;;;10.40;9.33;;;6.70;78.60;;;;;;5076235;28;20799;-86
2022/01/24 11:12:07;;;;;;;10.40;9.13;;;6.90;78.50;;;;;;5091118;28;20629;-86
2022/01/24 11:14:33;;;;;;;10.37;9.33;;;7.10;76.00;;;;;;5099125;28;20236;-86
2022/01/24 11:17:00;;;;;;;11.23;9.93;;;7.10;75.20;;;;;;5102099;28;20207;-86
2022/01/24 11:19:37;;;;;;;11.10;10.10;;;7.10;75.30;;;;;;5095560;28;20211;-86
2022/01/24 11:22:05;;;;;;;11.27;10.23;;;7.40;73.70;;;;;;5091561;28;20183;-86
2022/01/24 11:24:40;;;;;;;11.13;10.03;;;7.40;73.60;;;;;;5111592;28;20217;-86
2022/01/24 11:27:08;;;;;;;11.13;10.03;;;7.50;72.90;;;;;;5103544;28;20195;-87
2022/01/24 11:29:35;;;;;;;10.33;9.33;;;7.50;72.90;;;;;;5099946;28;20199;-86
2022/01/24 11:32:01;;;;;;;10.10;9.17;;;7.50;72.10;;;;;;5097272;28;20183;-87
2022/01/24 11:34:38;;;;;;;11.83;8.77;;;7.80;71.70;;;;;;5099563;28;20262;-86
2022/01/24 11:37:06;;;;;;;10.60;9.70;;;8.00;70.00;;;;;;5095048;28;20218;-86
2022/01/24 11:39:33;;;;;;;10.27;9.37;;;8.10;68.30;;;;;;5098058;28;20195;-87
2022/01/24 11:41:59;;;;;;;10.63;9.33;;;8.10;68.80;;;;;;5100125;28;20264;-87
2022/01/24 11:44:43;;;;;;;9.90;8.90;;;8.10;68.20;;;;;;5101049;28;20634;-86
2022/01/24 11:47:21;;;;;;;10.30;9.20;;;8.10;69.30;;;;;;5098450;28;20213;-86
2022/01/24 11:49:46;;;;;;;10.83;9.73;;;8.30;67.90;;;;;;5107428;28;20185;-87
2022/01/24 11:52:15;;;;;;;11.50;9.77;;;8.60;67.60;;;;;;5095492;28;20203;-86
2022/01/24 11:55:03;;;;;;;12.80;10.03;;;8.40;67.80;;;;;;5096874;28;20668;-86
2022/01/24 11:57:37;;;;;;;11.03;10.03;;;8.60;65.70;;;;;;5101830;28;20198;-86
2022/01/24 12:00:06;;;;;;;13.17;10.50;;;8.80;65.90;;;;;;5112631;28;20190;-86
2022/01/24 12:02:42;;;;;;;10.27;9.40;;;9.10;64.90;;;;;;5104741;28;20251;-86
2022/01/24 12:05:11;;;;;;;10.37;9.43;;;9.40;63.10;;;;;;5095248;28;20210;-86
2022/01/24 12:07:46;;;;;;;11.77;9.77;;;9.50;62.10;;;;;;5096402;28;20179;-88
2022/01/24 12:10:21;;;;;;;10.47;9.30;;;9.40;63.00;;;;;;5083898;28;20189;-87
2022/01/24 12:12:50;;;;;;;10.63;9.63;;;9.50;62.30;;;;;;5082493;28;20182;-86
2022/01/24 12:15:37;;;;;;;10.17;9.20;;;9.60;61.40;;;;;;5082665;28;20211;-87
2022/01/24 12:18:33;;;;;;;12.60;11.30;;;9.80;60.20;;;;;;5104855;28;20261;-86
2022/01/24 12:21:04;;;;;;;11.23;10.13;;;9.90;61.30;;;;;;5098964;28;20201;-86
2022/01/24 12:23:36;;;;;;;12.17;10.97;;;9.80;60.50;;;;;;5102680;28;20187;-86
2022/01/24 12:26:07;;;;;;;9.93;9.07;;;9.60;61.10;;;;;;5095094;28;20226;-86
2022/01/24 12:28:34;;;;;;;11.77;9.70;;;9.40;61.50;;;;;;5094351;28;20191;-86
2022/01/24 12:31:03;;;;;;;11.00;9.73;;;9.40;61.80;;;;;;5101801;28;20202;-86
2022/01/24 12:33:39;;;;;;;11.57;10.40;;;9.40;61.80;;;;;;5095951;28;20195;-86
2022/01/24 12:36:14;;;;;;;21.50;11.60;;;9.40;61.70;;;;;;5075877;28;20421;-86
2022/01/24 12:38:47;;;;;;;10.70;9.70;;;9.70;61.70;;;;;;5101397;28;20186;-86
2022/01/24 12:41:28;;;;;;;9.70;8.70;;;9.90;60.50;;;;;;5097614;28;20214;-86
2022/01/24 12:46:27;;;;;;;10.37;8.80;;;9.90;59.90;;;;;;5081331;28;20222;-86
2022/01/24 12:48:55;;;;;;;10.43;9.53;;;9.90;61.20;;;;;;5093428;28;20188;-86
2022/01/24 12:51:23;;;;;;;10.87;9.77;;;9.80;60.40;;;;;;5081146;28;20209;-87
2022/01/24 12:53:52;;;;;;;10.37;9.47;;;9.90;62.30;;;;;;5078204;28;20198;-87
2022/01/24 12:56:23;;;;;;;9.43;8.43;;;10.00;59.50;;;;;;5095036;28;20694;-86
2022/01/24 12:58:49;;;;;;;16.13;9.60;;;9.90;60.10;;;;;;5099339;28;20199;-87
2022/01/24 13:01:23;;;;;;;10.33;9.43;;;10.00;59.50;;;;;;5101036;28;20194;-86
2022/01/24 13:03:55;;;;;;;10.00;9.13;;;10.00;59.40;;;;;;5098604;28;20194;-86
2022/01/24 13:06:26;;;;;;;10.03;9.00;;;9.70;60.30;;;;;;5105041;28;20201;-87
2022/01/24 13:08:54;;;;;;;9.50;8.70;;;9.50;61.70;;;;;;5103293;28;20184;-86
2022/01/24 13:11:20;;;;;;;9.33;8.33;;;9.60;62.10;;;;;;5098481;28;20251;-87
2022/01/24 13:14:10;;;;;;;9.83;8.93;;;9.70;61.10;;;;;;5079192;28;20229;-87
2022/01/24 13:22:30;;;;;;;10.10;9.23;;;9.70;61.70;;;;;;5096351;28;20185;-88
2022/01/24 13:25:14;;;;;;;9.97;9.03;;;9.80;60.40;;;;;;5097858;28;20324;-87
2022/01/24 13:27:52;;;;;;;9.77;8.93;;;9.80;62.00;;;;;;5095987;28;20183;-87
2022/01/24 13:30:32;;;;;;;17.20;9.83;;;9.90;61.20;;;;;;5065944;28;20187;-86
2022/01/24 13:33:23;;;;;;;9.40;8.60;;;10.20;60.30;;;;;;5096803;28;20559;-87
2022/01/24 13:35:55;;;;;;;9.93;9.03;;;10.30;59.70;;;;;;5095494;28;20264;-86
2022/01/24 13:38:25;;;;;;;9.60;8.60;;;10.30;59.00;;;;;;5084463;28;20715;-87
2022/01/24 13:41:05;;;;;;;9.37;8.57;;;10.30;59.20;;;;;;5094976;28;20448;-87
2022/01/24 13:43:40;;;;;;;9.90;8.83;;;10.20;59.30;;;;;;5099670;28;20179;-87
2022/01/24 13:46:27;;;;;;;9.47;8.67;;;10.00;59.90;;;;;;5095353;28;20354;-87
2022/01/24 13:48:52;;;;;;;9.77;8.77;;;9.80;59.80;;;;;;5094583;28;20195;-86
2022/01/24 13:51:26;;;;;;;9.73;8.83;;;9.60;61.00;;;;;;5096689;28;20190;-86
2022/01/24 13:53:52;;;;;;;9.70;8.70;;;9.50;61.70;;;;;;5101301;28;20191;-87
2022/01/24 13:56:24;;;;;;;12.63;8.83;;;9.40;62.10;;;;;;5079963;28;20238;-87
2022/01/24 13:59:12;;;;;;;9.53;8.10;;;9.40;62.60;;;;;;5094496;28;20183;-87
2022/01/24 14:01:49;;;;;;;8.67;7.87;;;9.60;62.00;;;;;;5093198;28;20297;-87
2022/01/24 14:04:27;;;;;;;8.27;7.47;;;9.60;61.70;;;;;;5097713;28;20186;-87
2022/01/24 14:07:01;;;;;;;9.37;7.90;;;9.80;61.20;;;;;;5094673;28;20210;-87
2022/01/24 14:09:35;;;;;;;9.23;8.33;;;9.70;61.10;;;;;;5093592;28;20197;-86
2022/01/24 14:12:03;;;;;;;8.90;8.00;;;9.60;61.30;;;;;;5076606;28;20292;-86
2022/01/24 14:14:40;;;;;;;8.70;7.90;;;9.50;62.10;;;;;;5092439;28;20192;-86
2022/01/24 14:17:22;;;;;;;8.43;7.63;;;9.50;62.60;;;;;;5079290;28;20241;-86
2022/01/24 14:20:22;;;;;;;8.17;7.47;;;9.60;61.90;;;;;;5098508;28;20155;-86
2022/01/24 14:22:51;;;;;;;12.50;9.27;;;9.50;61.60;;;;;;5097164;28;20212;-87
2022/01/24 14:25:26;;;;;;;10.80;9.73;;;9.20;62.50;;;;;;5074726;28;20211;-85
2022/01/24 14:27:54;;;;;;;9.97;8.93;;;9.10;63.00;;;;;;5100912;28;20188;-85
2022/01/24 14:30:27;;;;;;;9.73;6.93;;;9.10;63.60;;;;;;5086759;28;20214;-86
2022/01/24 14:33:12;;;;;;;8.73;7.70;;;9.00;63.50;;;;;;5108039;28;20166;-86
2022/01/24 14:35:49;;;;;;;8.33;7.53;;;8.90;64.90;;;;;;5095761;28;20214;-86
2022/01/24 14:38:29;;;;;;;9.90;8.90;;;8.90;64.40;;;;;;5098839;28;20191;-86
2022/01/24 14:40:58;;;;;;;8.33;7.53;;;8.80;64.60;;;;;;5108069;28;20191;-87
2022/01/24 14:46:12;;;;;;;18.10;12.27;;;8.70;65.60;;;;;;5103845;28;20230;-86
2022/01/24 14:48:58;;;;;;;9.00;8.00;;;8.70;65.60;;;;;;5103242;28;20175;-85
2022/01/24 14:51:31;;;;;;;9.47;7.03;;;8.70;65.20;;;;;;5098965;28;20210;-87
2022/01/24 14:54:03;;;;;;;10.63;7.43;;;8.60;64.60;;;;;;5099785;28;20182;-86
2022/01/24 14:56:30;;;;;;;9.63;7.20;;;8.60;65.10;;;;;;5101677;28;20246;-86
2022/01/24 14:58:57;;;;;;;7.57;6.83;;;8.60;65.70;;;;;;5099074;28;20195;-86